Time;durP1;ratioP1;P1;durP2;ratioP2;P2;SDS_P1;SDS_P2;PMS_P1;PMS_P2;Temp;Humidity;BMP_temperature;BMP_pressure;BME280_temperature;BME280_humidity;BME280_pressure;Samples;Min_cycle;Max_cycle;Signal;HPM_P1;HPM_P2
2021/09/30 00:00:46;;;;;;;;;;;;;;;21.30;54.55;102421.88;2074695;28;792;-52
2021/09/30 00:01:46;;;;;;;;;;;;;;;21.29;54.66;102422.81;2074966;28;863;-51
2021/09/30 00:02:47;;;;;;;;;;;;;;;21.29;55.42;102415.63;2074924;28;806;-51
2021/09/30 00:03:47;;;;;;;;;;;;;;;21.27;55.10;102414.75;2074188;28;898;-51
2021/09/30 00:04:47;;;;;;;;;;;;;;;21.29;55.27;102414.72;2074367;28;985;-51
2021/09/30 00:05:47;;;;;;;;;;;;;;;21.27;55.39;102414.75;2075133;28;765;-52
2021/09/30 00:06:47;;;;;;;;;;;;;;;21.27;55.36;102414.75;2074767;28;1036;-51
2021/09/30 00:07:47;;;;;;;;;;;;;;;21.27;54.67;102414.75;2075021;28;1086;-51
2021/09/30 00:08:48;;;;;;;;;;;;;;;21.26;55.71;102412.06;2074869;28;902;-52
2021/09/30 00:09:48;;;;;;;;;;;;;;;21.27;54.79;102414.75;2074818;28;1894;-51
2021/09/30 00:10:58;;;;;;;;;;;;;;;21.27;55.77;102411.16;2074522;28;1174;-52
2021/09/30 00:12:05;;;;;;;;;;;;;;;21.25;54.96;102410.28;2074717;28;1154;-51
2021/09/30 00:13:26;;;;;;;;;;;;;;;21.23;55.81;102412.09;2074623;28;842;-51
2021/09/30 00:14:41;;;;;;;;;;;;;;;21.26;55.56;102406.66;2075033;28;897;-52
2021/09/30 00:17:00;;;;;;;;;;;;;;;21.24;55.75;102406.69;2075103;28;807;-51
2021/09/30 00:39:48;;;;;;;;;;;;;;;21.22;55.23;102391.44;2051248;29;1093;-51
2021/09/30 00:40:25;;;;;;;;;;;;;;;21.18;55.50;102379.81;2051192;29;1118;-51
2021/09/30 00:41:41;;;;;;;;;;;;;;;21.24;55.21;102386.91;2051479;29;827;-51
2021/09/30 00:46:44;;;;;;;;;;;;;;;21.17;56.53;102378.03;2043598;29;701;-51
2021/09/30 00:47:53;;;;;;;;;;;;;;;21.18;56.11;102380.72;2043457;29;930;-51
2021/09/30 00:50:09;;;;;;;;;;;;;;;21.26;55.30;102369.84;2043543;29;1900;-51
2021/09/30 00:51:21;;;;;;;;;;;;;;;21.27;55.66;102368.94;2043241;29;1179;-51
2021/09/30 01:22:19;;;;;;;;;;;;;;;21.20;55.89;102352.88;2059184;28;831;-51
2021/09/30 02:19:53;;;;;;;;;;;;;;;21.11;55.68;102302.66;2035047;29;700;-51
2021/09/30 02:22:28;;;;;;;;;;;;;;;21.13;55.57;102292.75;2034884;29;895;-51
2021/09/30 02:25:17;;;;;;;;;;;;;;;21.17;54.50;102298.09;2057018;28;983;-51
2021/09/30 02:34:45;;;;;;;;;;;;;;;21.14;55.44;102298.13;2058494;28;911;-51
2021/09/30 02:59:13;;;;;;;;;;;;;;;21.16;54.68;102274.75;2018240;29;921;-51
2021/09/30 03:00:13;;;;;;;;;;;;;;;21.18;55.02;102280.13;2019141;29;809;-51
2021/09/30 03:01:18;;;;;;;;;;;;;;;21.17;55.92;102284.63;2018764;29;1151;-51
2021/09/30 03:02:18;;;;;;;;;;;;;;;21.16;55.38;102296.31;2019055;29;770;-51
2021/09/30 03:03:21;;;;;;;;;;;;;;;21.21;55.54;102298.03;2019012;29;887;-52
2021/09/30 03:04:21;;;;;;;;;;;;;;;21.19;55.39;102303.44;2019052;29;1020;-51
2021/09/30 03:05:22;;;;;;;;;;;;;;;21.19;55.02;102284.59;2018615;29;915;-51
2021/09/30 03:06:23;;;;;;;;;;;;;;;21.17;54.65;102292.72;2018675;29;856;-51
2021/09/30 03:07:24;;;;;;;;;;;;;;;21.17;55.88;102287.31;2019358;29;951;-51
2021/09/30 03:08:26;;;;;;;;;;;;;;;21.17;55.30;102283.72;2026726;29;769;-51
2021/09/30 03:09:38;;;;;;;;;;;;;;;21.18;55.53;102289.09;2026555;29;1890;-51
2021/09/30 03:10:39;;;;;;;;;;;;;;;21.18;55.58;102285.50;2029029;29;1241;-51
2021/09/30 03:11:41;;;;;;;;;;;;;;;21.16;55.57;102288.22;2034399;29;1141;-51
2021/09/30 03:12:42;;;;;;;;;;;;;;;21.16;55.72;102284.63;2034414;29;911;-51
2021/09/30 03:13:44;;;;;;;;;;;;;;;21.15;55.87;102282.84;2034476;29;1088;-51
2021/09/30 03:14:48;;;;;;;;;;;;;;;21.16;55.62;102285.53;2034497;29;780;-51
2021/09/30 03:15:55;;;;;;;;;;;;;;;21.14;55.40;102281.06;2034580;29;852;-51
2021/09/30 03:17:01;;;;;;;;;;;;;;;21.16;55.00;102288.22;2034543;29;797;-51
2021/09/30 03:19:30;;;;;;;;;;;;;;;21.13;56.07;102277.50;2034519;29;1533;-51
2021/09/30 03:20:49;;;;;;;;;;;;;;;21.15;54.78;102254.13;2034734;29;723;-51
2021/09/30 03:23:15;;;;;;;;;;;;;;;21.18;55.61;102235.22;2034508;29;679;-51
2021/09/30 03:24:17;;;;;;;;;;;;;;;21.20;55.41;102239.69;2034594;29;1449;-51
2021/09/30 03:25:17;;;;;;;;;;;;;;;21.20;55.67;102243.25;2034040;29;918;-51
2021/09/30 03:26:19;;;;;;;;;;;;;;;21.19;55.23;102249.56;2034457;29;944;-51
2021/09/30 03:27:19;;;;;;;;;;;;;;;21.19;55.34;102241.47;2034505;29;941;-51
2021/09/30 03:28:22;;;;;;;;;;;;;;;21.17;55.87;102237.91;2034380;29;780;-51
2021/09/30 03:29:22;;;;;;;;;;;;;;;21.16;55.11;102231.66;2034281;29;1919;-51
2021/09/30 03:30:24;;;;;;;;;;;;;;;21.18;55.41;102232.50;2034454;29;1034;-51
2021/09/30 03:31:25;;;;;;;;;;;;;;;21.20;54.83;102231.59;2045551;28;957;-52
2021/09/30 03:32:25;;;;;;;;;;;;;;;;;;2067131;28;1009;-51
2021/09/30 03:33:26;;;;;;;;;;;;;;;21.19;55.87;102230.69;2066864;28;886;-51
2021/09/30 03:34:26;;;;;;;;;;;;;;;21.15;55.66;102234.34;2066854;28;1141;-51
2021/09/30 03:35:26;;;;;;;;;;;;;;;21.14;55.94;102232.56;2067097;28;827;-51
2021/09/30 03:36:27;;;;;;;;;;;;;;;21.14;55.47;102228.06;2067157;28;859;-51
2021/09/30 03:37:28;;;;;;;;;;;;;;;21.17;55.41;102232.53;2067089;28;855;-52
2021/09/30 03:38:28;;;;;;;;;;;;;;;;;;2067097;28;1049;-51
2021/09/30 03:39:28;;;;;;;;;;;;;;;21.16;55.76;102233.44;2066597;28;1068;-51
2021/09/30 03:40:28;;;;;;;;;;;;;;;21.15;55.96;102228.94;2067094;28;831;-51
2021/09/30 03:41:28;;;;;;;;;;;;;;;21.16;55.21;102231.66;2067004;28;868;-52
2021/09/30 03:42:29;;;;;;;;;;;;;;;21.14;56.13;102227.16;2067004;28;974;-51
2021/09/30 03:43:29;;;;;;;;;;;;;;;21.17;55.80;102230.72;2067053;28;831;-51
2021/09/30 03:44:29;;;;;;;;;;;;;;;21.13;55.83;102231.69;2058713;28;1242;-51
2021/09/30 03:45:29;;;;;;;;;;;;;;;21.19;55.26;102225.31;2058857;28;871;-51
2021/09/30 03:46:32;;;;;;;;;;;;;;;21.15;56.00;102221.78;2058970;28;777;-51
2021/09/30 03:47:32;;;;;;;;;;;;;;;21.16;55.66;102217.25;2058827;28;772;-51
2021/09/30 03:48:32;;;;;;;;;;;;;;;21.16;55.54;102220.88;2058883;28;851;-51
2021/09/30 03:49:34;;;;;;;;;;;;;;;21.16;55.62;102218.16;2058959;28;1958;-51
2021/09/30 03:53:15;;;;;;;;;;;;;;;21.16;55.52;102215.47;2049917;29;885;-51
2021/09/30 03:55:56;;;;;;;;;;;;;;;21.18;54.45;102207.34;2050111;29;804;-51
2021/09/30 03:57:05;;;;;;;;;;;;;;;21.16;55.49;102211.88;2049898;29;1889;-51
2021/09/30 03:59:20;;;;;;;;;;;;;;;21.20;54.77;102207.34;2049996;29;745;-51
2021/09/30 04:00:20;;;;;;;;;;;;;;;21.17;55.69;102205.56;2050066;29;825;-51
2021/09/30 04:01:20;;;;;;;;;;;;;;;21.17;55.72;102206.47;2050102;29;978;-51
2021/09/30 04:02:20;;;;;;;;;;;;;;;21.23;55.70;102209.97;2049790;29;982;-51
2021/09/30 04:03:21;;;;;;;;;;;;;;;21.50;54.43;102208.66;2050028;29;962;-52
2021/09/30 04:04:22;;;;;;;;;;;;;;;22.02;52.44;102209.63;2049974;29;887;-51
2021/09/30 04:05:22;;;;;;;;;;;;;;;22.14;52.58;102203.09;2049544;29;836;-51
2021/09/30 04:06:22;;;;;;;;;;;;;;;22.19;52.51;102189.53;2050068;29;898;-51
2021/09/30 04:07:22;;;;;;;;;;;;;;;22.26;52.78;102184.91;2050056;29;879;-51
2021/09/30 04:08:23;;;;;;;;;;;;;;;22.34;52.09;102193.75;2049636;29;791;-51
2021/09/30 04:09:27;;;;;;;;;;;;;;;22.38;51.74;102194.56;2049954;29;1969;-51
2021/09/30 04:10:27;;;;;;;;;;;;;;;22.41;51.46;102189.09;2049745;29;800;-51
2021/09/30 04:11:27;;;;;;;;;;;;;;;22.45;51.71;102193.56;2054504;28;1193;-51
2021/09/30 04:12:27;;;;;;;;;;;;;;;22.49;51.11;102196.19;2057849;28;818;-51
2021/09/30 04:13:27;;;;;;;;;;;;;;;22.54;51.37;102193.38;2057705;28;856;-51
2021/09/30 04:14:28;;;;;;;;;;;;;;;22.55;51.64;102197.84;2057761;28;974;-51
2021/09/30 04:15:28;;;;;;;;;;;;;;;22.60;51.31;102197.78;2057928;28;891;-51
2021/09/30 04:16:29;;;;;;;;;;;;;;;22.62;51.89;102198.63;2057955;28;1102;-51
2021/09/30 04:17:29;;;;;;;;;;;;;;;22.67;50.81;102198.53;2057883;28;831;-51
2021/09/30 04:18:29;;;;;;;;;;;;;;;22.69;51.50;102199.38;2057657;28;987;-51
2021/09/30 04:19:30;;;;;;;;;;;;;;;22.72;51.56;102202.03;2057497;28;994;-51
2021/09/30 04:20:30;;;;;;;;;;;;;;;22.73;50.91;102190.31;2057780;28;819;-51
2021/09/30 04:21:31;;;;;;;;;;;;;;;22.74;51.56;102192.06;2057787;28;998;-52
2021/09/30 04:22:31;;;;;;;;;;;;;;;22.74;51.20;102194.78;2057880;28;937;-51
2021/09/30 04:23:32;;;;;;;;;;;;;;;22.73;50.98;102193.88;2057966;28;978;-51
2021/09/30 04:24:32;;;;;;;;;;;;;;;22.77;50.51;102194.72;2057926;28;962;-51
2021/09/30 04:25:32;;;;;;;;;;;;;;;22.75;51.00;102185.75;2057916;28;1493;-51
2021/09/30 04:26:32;;;;;;;;;;;;;;;22.78;50.46;102191.97;2057849;28;1002;-51
2021/09/30 04:27:33;;;;;;;;;;;;;;;22.79;50.88;102184.78;2057767;28;982;-51
2021/09/30 04:28:33;;;;;;;;;;;;;;;22.78;50.73;102186.56;2057608;28;970;-51
2021/09/30 04:29:33;;;;;;;;;;;;;;;22.77;51.23;102189.31;2058412;28;1973;-51
2021/09/30 04:30:33;;;;;;;;;;;;;;;22.81;50.63;102182.94;2058599;28;1009;-51
2021/09/30 04:31:34;;;;;;;;;;;;;;;22.83;50.76;102188.28;2058892;28;1264;-51
2021/09/30 04:32:34;;;;;;;;;;;;;;;22.82;51.53;102176.59;2058912;28;685;-51
2021/09/30 04:33:34;;;;;;;;;;;;;;;22.84;51.01;102179.25;2058821;28;808;-51
2021/09/30 04:34:34;;;;;;;;;;;;;;;22.82;51.01;102179.31;2058724;28;962;-51
2021/09/30 04:35:34;;;;;;;;;;;;;;;22.85;50.85;102181.03;2058502;28;772;-51
2021/09/30 04:36:35;;;;;;;;;;;;;;;22.85;51.27;102172.91;2058743;28;966;-51
2021/09/30 04:37:35;;;;;;;;;;;;;;;22.86;50.84;102178.31;2058824;28;828;-51
2021/09/30 04:38:35;;;;;;;;;;;;;;;22.87;50.95;102176.47;2058459;28;767;-51
2021/09/30 04:39:36;;;;;;;;;;;;;;;22.89;50.23;102174.63;2058817;28;847;-51
2021/09/30 04:40:36;;;;;;;;;;;;;;;22.86;50.77;102174.69;2058816;28;808;-51
2021/09/30 04:41:36;;;;;;;;;;;;;;;22.89;50.86;102175.53;2058771;28;978;-51
2021/09/30 04:42:36;;;;;;;;;;;;;;;22.87;51.25;102173.78;2058786;28;831;-52
2021/09/30 04:43:36;;;;;;;;;;;;;;;22.91;50.18;102176.41;2059388;28;1469;-51
2021/09/30 04:44:37;;;;;;;;;;;;;;;22.90;50.81;102176.41;2066779;28;989;-51
2021/09/30 04:45:37;;;;;;;;;;;;;;;22.87;50.37;102171.97;2066920;28;796;-51
2021/09/30 04:46:37;;;;;;;;;;;;;;;22.92;51.32;102172.78;2066701;28;899;-51
2021/09/30 04:47:38;;;;;;;;;;;;;;;22.94;50.50;102173.63;2066768;28;797;-51
2021/09/30 04:48:38;;;;;;;;;;;;;;;22.93;50.60;102171.84;2066669;28;880;-51
2021/09/30 04:49:39;;;;;;;;;;;;;;;22.93;50.79;102170.94;2066640;28;1961;-51
2021/09/30 04:50:39;;;;;;;;;;;;;;;22.96;50.46;102173.59;2066829;28;1043;-51
2021/09/30 04:51:39;;;;;;;;;;;;;;;22.97;50.49;102169.06;2066556;28;760;-51
2021/09/30 04:52:39;;;;;;;;;;;;;;;23.00;51.00;102174.38;2066624;28;1046;-51
2021/09/30 04:53:40;;;;;;;;;;;;;;;23.01;50.49;102168.06;2066825;28;1018;-51
2021/09/30 04:54:40;;;;;;;;;;;;;;;23.01;50.24;102168.06;2066857;28;1011;-51
2021/09/30 04:55:40;;;;;;;;;;;;;;;22.98;50.69;102168.13;2066766;28;851;-51
2021/09/30 04:56:40;;;;;;;;;;;;;;;22.99;51.24;102160.00;2066626;28;868;-51
2021/09/30 04:57:40;;;;;;;;;;;;;;;23.00;50.01;102167.19;2066695;28;812;-51
2021/09/30 04:58:41;;;;;;;;;;;;;;;22.99;50.95;102168.09;2066612;28;966;-51
2021/09/30 04:59:41;;;;;;;;;;;;;;;22.99;50.16;102173.50;2066619;28;757;-51
2021/09/30 05:00:41;;;;;;;;;;;;;;;23.01;50.39;102166.25;2066674;28;920;-51
2021/09/30 05:01:41;;;;;;;;;;;;;;;23.01;50.92;102159.94;2066748;28;930;-51
2021/09/30 05:02:42;;;;;;;;;;;;;;;23.02;51.31;102161.72;2066390;28;1052;-51
2021/09/30 05:03:42;;;;;;;;;;;;;;;23.00;50.80;102163.56;2066778;28;813;-51
2021/09/30 05:04:42;;;;;;;;;;;;;;;23.01;50.16;102159.94;2066484;28;792;-52
2021/09/30 05:05:42;;;;;;;;;;;;;;;23.05;50.06;102167.97;2066632;28;855;-51
2021/09/30 05:06:43;;;;;;;;;;;;;;;23.02;50.21;102153.63;2066628;28;804;-51
2021/09/30 05:07:43;;;;;;;;;;;;;;;23.02;50.93;102164.44;2066585;28;855;-51
2021/09/30 05:08:45;;;;;;;;;;;;;;;23.03;50.28;102155.41;2066417;28;1045;-51
2021/09/30 05:09:48;;;;;;;;;;;;;;;23.04;50.99;102157.19;2066465;28;1957;-51
2021/09/30 05:10:50;;;;;;;;;;;;;;;23.04;50.91;102160.78;2066534;28;1254;-51
2021/09/30 05:11:52;;;;;;;;;;;;;;;23.03;50.95;102159.00;2074080;28;1306;-51
2021/09/30 05:12:54;;;;;;;;;;;;;;;23.06;50.88;102161.63;2074728;28;823;-51
2021/09/30 05:13:57;;;;;;;;;;;;;;;23.07;50.27;102160.72;2074683;28;839;-51
2021/09/30 05:14:57;;;;;;;;;;;;;;;23.06;50.26;102156.25;2074710;28;875;-51
2021/09/30 05:15:57;;;;;;;;;;;;;;;23.09;50.66;102156.16;2074779;28;852;-51
2021/09/30 05:16:57;;;;;;;;;;;;;;;23.06;50.30;102156.25;2074597;28;990;-51
2021/09/30 05:17:58;;;;;;;;;;;;;;;23.06;50.97;102148.13;2074791;28;782;-51
2021/09/30 05:18:58;;;;;;;;;;;;;;;23.09;50.73;102158.88;2074437;28;812;-51
2021/09/30 05:19:58;;;;;;;;;;;;;;;23.09;51.22;102157.97;2074372;28;999;-51
2021/09/30 05:20:58;;;;;;;;;;;;;;;23.08;51.20;102157.09;2074736;28;1214;-51
2021/09/30 05:21:58;;;;;;;;;;;;;;;23.08;50.74;102156.19;2074628;28;1352;-51
2021/09/30 05:22:59;;;;;;;;;;;;;;;23.10;50.22;102154.34;2076164;28;966;-51
2021/09/30 05:23:59;;;;;;;;;;;;;;;23.12;49.97;102152.50;2076125;28;1944;-51
2021/09/30 05:24:59;;;;;;;;;;;;;;;23.12;50.33;102138.09;2075957;28;836;-51
2021/09/30 05:25:59;;;;;;;;;;;;;;;23.09;50.38;102130.94;2076198;28;836;-51
2021/09/30 05:27:00;;;;;;;;;;;;;;;23.09;50.89;102142.66;2075828;28;982;-51
2021/09/30 05:28:02;;;;;;;;;;;;;;;23.10;50.76;102143.53;2076120;28;1402;-51
2021/09/30 05:29:03;;;;;;;;;;;;;;;23.12;49.97;102151.63;2076152;28;780;-51
2021/09/30 05:30:04;;;;;;;;;;;;;;;23.11;51.16;102139.91;2075799;28;1910;-51
2021/09/30 05:31:04;;;;;;;;;;;;;;;23.10;50.61;102136.31;2076134;28;937;-52
2021/09/30 05:32:05;;;;;;;;;;;;;;;23.14;50.50;102133.53;2076128;28;1057;-51
2021/09/30 05:33:05;;;;;;;;;;;;;;;23.10;51.02;102143.53;2075678;28;1130;-51
2021/09/30 05:34:05;;;;;;;;;;;;;;;23.13;50.48;102135.34;2076219;28;1041;-51
2021/09/30 05:35:06;;;;;;;;;;;;;;;23.12;50.83;102141.69;2076144;28;740;-52
2021/09/30 05:36:06;;;;;;;;;;;;;;;23.12;50.26;102138.97;2076025;28;1397;-51
2021/09/30 05:37:06;;;;;;;;;;;;;;;23.14;50.15;102136.25;2076138;28;783;-52
2021/09/30 05:38:07;;;;;;;;;;;;;;;23.16;50.48;102135.28;2076030;28;1029;-51
2021/09/30 05:39:07;;;;;;;;;;;;;;;23.16;50.32;102131.69;2076094;28;752;-51
2021/09/30 05:40:13;;;;;;;;;;;;;;;23.12;50.66;102130.88;2076276;28;958;-51
2021/09/30 05:41:14;;;;;;;;;;;;;;;23.14;50.73;102136.25;2075837;28;1050;-51
2021/09/30 05:42:14;;;;;;;;;;;;;;;23.13;50.78;102143.44;2076148;28;1040;-51
2021/09/30 05:43:25;;;;;;;;;;;;;;;23.13;51.43;102132.63;2076028;28;846;-51
2021/09/30 05:44:26;;;;;;;;;;;;;;;23.14;51.04;102139.81;2068537;28;1186;-51
2021/09/30 05:45:26;;;;;;;;;;;;;;;23.13;50.63;102135.34;2067881;28;871;-51
2021/09/30 05:46:35;;;;;;;;;;;;;;;23.15;50.65;102138.03;2067800;28;864;-51
2021/09/30 05:47:35;;;;;;;;;;;;;;;23.13;50.78;102132.63;2067892;28;819;-51
2021/09/30 05:48:35;;;;;;;;;;;;;;;23.12;50.11;102136.28;2067778;28;891;-51
2021/09/30 05:49:35;;;;;;;;;;;;;;;23.13;51.06;102132.63;2067884;28;1890;-51
2021/09/30 05:50:36;;;;;;;;;;;;;;;23.16;49.84;102131.69;2059245;28;859;-51
2021/09/30 05:51:36;;;;;;;;;;;;;;;23.15;50.67;102136.19;2059294;28;1052;-51
2021/09/30 05:52:36;;;;;;;;;;;;;;;23.17;50.33;102139.75;2067753;28;764;-51
2021/09/30 05:53:37;;;;;;;;;;;;;;;23.17;50.82;102128.94;2067858;28;748;-51
2021/09/30 05:54:37;;;;;;;;;;;;;;;23.16;50.19;102143.38;2067529;28;966;-51
2021/09/30 05:55:38;;;;;;;;;;;;;;;23.14;50.58;102129.00;2059286;28;866;-51
2021/09/30 05:56:38;;;;;;;;;;;;;;;23.15;50.40;102128.09;2059164;28;1029;-51
2021/09/30 05:57:38;;;;;;;;;;;;;;;23.15;50.53;102121.81;2067799;28;856;-51
2021/09/30 05:58:38;;;;;;;;;;;;;;;23.16;50.32;102116.34;2067866;28;911;-51
2021/09/30 05:59:40;;;;;;;;;;;;;;;23.17;50.60;102123.53;2067840;28;957;-51
2021/09/30 06:04:11;;;;;;;;;;;;;;;23.18;50.54;102117.19;2042848;29;1154;-51
2021/09/30 06:09:18;;;;;;;;;;;;;;;23.19;50.34;102110.88;2043170;29;741;-51
2021/09/30 06:12:21;;;;;;;;;;;;;;;23.18;50.88;102109.09;2043889;29;1850;-50
2021/09/30 06:13:33;;;;;;;;;;;;;;;23.21;51.02;102117.13;2044731;29;2410;-51
2021/09/30 06:14:35;;;;;;;;;;;;;;;23.18;50.52;102113.63;2048844;29;1720;-51
2021/09/30 06:15:39;;;;;;;;;;;;;;;23.17;50.10;102118.13;2049929;29;1674;-51
2021/09/30 06:16:48;;;;;;;;;;;;;;;23.18;50.05;102119.03;2050589;29;803;-51
2021/09/30 06:17:49;;;;;;;;;;;;;;;23.12;50.54;102117.34;2050873;29;796;-51
2021/09/30 06:18:49;;;;;;;;;;;;;;;23.09;51.08;102120.13;2050545;29;867;-51
2021/09/30 06:19:50;;;;;;;;;;;;;;;23.08;50.94;102113.84;2049003;29;2094;-51
2021/09/30 06:20:50;;;;;;;;;;;;;;;23.10;50.56;102136.31;2049001;29;2001;-51
2021/09/30 06:21:51;;;;;;;;;;;;;;;23.09;50.35;102128.22;2049491;29;1702;-51
2021/09/30 06:22:51;;;;;;;;;;;;;;;23.10;50.40;102132.72;2042750;29;1062;-51
2021/09/30 06:23:51;;;;;;;;;;;;;;;23.06;51.54;102129.22;2042368;29;1662;-51
2021/09/30 06:24:53;;;;;;;;;;;;;;;23.03;51.48;102129.28;2045483;29;1536;-51
2021/09/30 06:25:53;;;;;;;;;;;;;;;23.07;50.70;102127.38;2050785;29;784;-51
2021/09/30 06:26:53;;;;;;;;;;;;;;;23.06;51.24;102125.59;2043844;29;1446;-51
2021/09/30 06:27:54;;;;;;;;;;;;;;;23.04;51.19;102116.63;2046162;29;1697;-51
2021/09/30 06:28:54;;;;;;;;;;;;;;;23.06;50.84;102123.81;2050651;29;1028;-51
2021/09/30 06:29:54;;;;;;;;;;;;;;;23.06;51.25;102126.50;2043748;29;2187;-51
2021/09/30 06:30:54;;;;;;;;;;;;;;;23.08;51.70;102121.06;2050416;29;1934;-51
2021/09/30 06:31:54;;;;;;;;;;;;;;;23.10;50.87;102127.31;2050525;29;856;-51
2021/09/30 06:32:55;;;;;;;;;;;;;;;23.09;51.17;102128.22;2043051;29;1840;-51
2021/09/30 06:33:55;;;;;;;;;;;;;;;23.12;51.17;102127.28;2058032;28;931;-51
2021/09/30 06:34:56;;;;;;;;;;;;;;;23.08;50.94;102127.34;2066705;28;1740;-51
2021/09/30 06:35:56;;;;;;;;;;;;;;;23.09;52.00;102133.63;2066159;28;1876;-51
2021/09/30 06:36:56;;;;;;;;;;;;;;;23.09;51.09;102128.22;2067283;28;1021;-51
2021/09/30 06:37:56;;;;;;;;;;;;;;;23.07;51.96;102124.69;2059713;28;1503;-49
2021/09/30 06:38:57;;;;;;;;;;;;;;;23.08;50.73;102124.66;2059391;28;898;-50
2021/09/30 06:39:57;;;;;;;;;;;;;;;23.01;51.93;102123.03;2065442;28;2147;-50
2021/09/30 06:40:57;;;;;;;;;;;;;;;23.05;52.00;102126.53;2066796;28;1781;-51
2021/09/30 06:41:57;;;;;;;;;;;;;;;23.08;51.50;102129.16;2063949;28;1972;-51
2021/09/30 06:42:58;;;;;;;;;;;;;;;23.08;51.13;102129.16;2062836;28;1887;-51
2021/09/30 06:43:58;;;;;;;;;;;;;;;23.11;50.78;102131.78;2067023;28;1564;-52
2021/09/30 06:44:59;;;;;;;;;;;;;;;23.12;51.41;102135.41;2066863;28;1904;-52
2021/09/30 06:45:59;;;;;;;;;;;;;;;23.10;51.39;102135.41;2067321;28;1883;-52
2021/09/30 06:46:59;;;;;;;;;;;;;;;23.02;52.16;102135.63;2067095;28;784;-50
2021/09/30 06:47:59;;;;;;;;;;;;;;;23.07;51.75;102133.69;2067518;28;788;-52
2021/09/30 06:49:00;;;;;;;;;;;;;;;23.07;51.74;102131.00;2066519;28;1615;-53
2021/09/30 06:50:00;;;;;;;;;;;;;;;23.05;52.05;102130.13;2067275;28;1895;-52
2021/09/30 06:51:00;;;;;;;;;;;;;;;23.09;51.44;102131.84;2066321;28;1744;-51
2021/09/30 06:52:00;;;;;;;;;;;;;;;23.06;51.55;102133.72;2067170;28;1650;-51
2021/09/30 06:53:01;;;;;;;;;;;;;;;23.04;51.41;102133.75;2067306;28;831;-51
2021/09/30 06:54:02;;;;;;;;;;;;;;;23.06;51.56;102131.00;2067387;28;1497;-51
2021/09/30 06:55:03;;;;;;;;;;;;;;;23.05;52.20;102135.53;2066626;28;1611;-51
2021/09/30 06:56:08;;;;;;;;;;;;;;;23.05;51.73;102135.53;2067406;28;1179;-51
2021/09/30 06:57:08;;;;;;;;;;;;;;;23.10;52.06;102132.72;2059905;28;1481;-50
2021/09/30 06:58:10;;;;;;;;;;;;;;;23.04;51.33;102135.56;2058800;28;856;-51
2021/09/30 06:59:16;;;;;;;;;;;;;;;23.04;51.88;102133.75;2059318;28;855;-50
2021/09/30 07:00:17;;;;;;;;;;;;;;;23.07;51.88;102132.78;2059381;28;843;-51
2021/09/30 07:01:17;;;;;;;;;;;;;;;23.04;51.58;102128.34;2059343;28;1345;-51
2021/09/30 07:02:22;;;;;;;;;;;;;;;23.01;52.47;102133.84;2066582;28;1588;-51
2021/09/30 07:03:27;;;;;;;;;;;;;;;23.04;51.78;102136.47;2067270;28;816;-51
2021/09/30 07:04:27;;;;;;;;;;;;;;;23.02;52.17;102141.00;2065458;28;1515;-50
2021/09/30 07:05:27;;;;;;;;;;;;;;;23.04;52.27;102132.84;2067339;28;978;-51
2021/09/30 07:06:27;;;;;;;;;;;;;;;23.03;52.52;102134.69;2067283;28;978;-51
2021/09/30 07:07:27;;;;;;;;;;;;;;;23.03;51.65;102137.38;2067105;28;1704;-51
2021/09/30 07:08:27;;;;;;;;;;;;;;;23.04;52.14;102138.25;2067162;28;1291;-50
2021/09/30 07:09:30;;;;;;;;;;;;;;;23.05;51.69;102140.03;2067025;28;1949;-51
2021/09/30 07:10:30;;;;;;;;;;;;;;;23.06;51.77;102139.13;2067215;28;1291;-51
2021/09/30 07:11:31;;;;;;;;;;;;;;;23.03;51.84;102131.06;2066062;28;1432;-50
2021/09/30 07:12:31;;;;;;;;;;;;;;;23.01;52.79;102138.34;2067231;28;982;-50
2021/09/30 07:13:31;;;;;;;;;;;;;;;23.07;51.52;102136.41;2072782;28;1698;-50
2021/09/30 07:14:32;;;;;;;;;;;;;;;23.00;52.03;102136.56;2073725;28;1744;-51
2021/09/30 07:15:32;;;;;;;;;;;;;;;23.02;52.67;102137.41;2070771;28;1312;-51
2021/09/30 07:16:32;;;;;;;;;;;;;;;23.04;51.58;102132.84;2067552;28;1760;-50
2021/09/30 07:17:32;;;;;;;;;;;;;;;23.02;52.21;102142.81;2073364;28;2020;-50
2021/09/30 07:18:33;;;;;;;;;;;;;;;23.05;52.22;102140.03;2075363;28;812;-50
2021/09/30 07:19:35;;;;;;;;;;;;;;;23.05;51.95;102146.34;2074981;28;1679;-51
2021/09/30 07:20:36;;;;;;;;;;;;;;;23.06;52.11;102139.13;2074493;28;2159;-50
2021/09/30 07:21:36;;;;;;;;;;;;;;;23.05;51.93;102134.63;2073034;28;1871;-50
2021/09/30 07:22:37;;;;;;;;;;;;;;;23.05;51.38;102140.94;2073214;28;1871;-50
2021/09/30 07:23:37;;;;;;;;;;;;;;;23.05;52.08;102143.66;2074424;28;2039;-50
2021/09/30 07:24:37;;;;;;;;;;;;;;;23.08;51.43;102142.66;2074782;28;1817;-50
2021/09/30 07:25:38;;;;;;;;;;;;;;;23.03;51.95;102145.50;2072979;28;1857;-50
2021/09/30 07:26:38;;;;;;;;;;;;;;;23.07;52.25;102141.81;2072090;28;1749;-51
2021/09/30 07:27:39;;;;;;;;;;;;;;;23.09;51.71;102141.75;2072035;28;1676;-52
2021/09/30 07:28:39;;;;;;;;;;;;;;;23.04;52.02;102135.56;2069269;28;1759;-51
2021/09/30 07:29:39;;;;;;;;;;;;;;;23.04;52.76;102149.06;2069758;28;1969;-50
2021/09/30 07:30:40;;;;;;;;;;;;;;;23.06;52.36;102131.00;2073977;28;2187;-52
2021/09/30 07:31:40;;;;;;;;;;;;;;;23.10;51.94;102132.72;2075328;28;811;-50
2021/09/30 07:32:40;;;;;;;;;;;;;;;23.09;51.69;102125.53;2072692;28;1608;-50
2021/09/30 07:33:40;;;;;;;;;;;;;;;23.08;51.44;102130.06;2071568;28;1920;-50
2021/09/30 07:34:40;;;;;;;;;;;;;;;23.09;51.55;102123.72;2072665;28;1408;-51
2021/09/30 07:35:41;;;;;;;;;;;;;;;23.08;51.82;102130.06;2067089;28;902;-51
2021/09/30 07:36:43;;;;;;;;;;;;;;;23.09;51.96;102126.44;2067112;28;1024;-50
2021/09/30 07:37:45;;;;;;;;;;;;;;;23.13;51.72;102126.38;2067095;28;978;-51
2021/09/30 07:38:45;;;;;;;;;;;;;;;23.12;51.94;102125.47;2069555;28;1437;-51
2021/09/30 07:39:45;;;;;;;;;;;;;;;23.15;51.32;102121.81;2075186;28;851;-51
2021/09/30 07:40:45;;;;;;;;;;;;;;;23.12;51.94;102130.88;2074528;28;1817;-51
2021/09/30 07:41:46;;;;;;;;;;;;;;;23.12;51.05;102133.56;2075238;28;1017;-51
2021/09/30 07:42:47;;;;;;;;;;;;;;;23.11;51.02;102131.78;2074803;28;1670;-50
2021/09/30 07:43:47;;;;;;;;;;;;;;;23.08;51.49;102126.47;2075236;28;1008;-51
2021/09/30 07:44:47;;;;;;;;;;;;;;;23.13;51.38;102132.63;2074896;28;743;-51
2021/09/30 07:45:48;;;;;;;;;;;;;;;23.10;51.33;102133.63;2074907;28;843;-51
2021/09/30 07:46:48;;;;;;;;;;;;;;;23.13;50.43;102132.63;2074796;28;842;-51
2021/09/30 07:47:48;;;;;;;;;;;;;;;23.16;50.90;102127.16;2075180;28;977;-51
2021/09/30 07:48:49;;;;;;;;;;;;;;;23.12;51.42;102130.88;2075104;28;792;-51
2021/09/30 07:49:49;;;;;;;;;;;;;;;23.13;51.41;102137.19;2074413;28;1953;-51
2021/09/30 07:50:50;;;;;;;;;;;;;;;23.14;51.60;102128.13;2074203;28;2048;-51
2021/09/30 07:51:50;;;;;;;;;;;;;;;23.14;51.71;102131.72;2075128;28;807;-51
2021/09/30 07:52:50;;;;;;;;;;;;;;;23.12;52.21;102130.88;2075023;28;1002;-51
2021/09/30 07:53:50;;;;;;;;;;;;;;;23.16;51.77;102124.47;2074934;28;1611;-51
2021/09/30 07:54:51;;;;;;;;;;;;;;;23.15;51.38;102129.91;2074944;28;2053;-50
2021/09/30 07:55:52;;;;;;;;;;;;;;;23.16;51.18;102129.88;2074838;28;1859;-51
2021/09/30 07:56:52;;;;;;;;;;;;;;;23.19;51.90;102137.03;2074766;28;1963;-51
2021/09/30 07:57:53;;;;;;;;;;;;;;;23.17;52.12;102131.66;2074625;28;1840;-51
2021/09/30 07:58:53;;;;;;;;;;;;;;;23.15;51.56;102132.63;2075023;28;898;-51
2021/09/30 07:59:53;;;;;;;;;;;;;;;23.14;51.07;102131.72;2071678;28;1665;-51
2021/09/30 08:00:53;;;;;;;;;;;;;;;23.13;51.99;102134.47;2074950;28;1879;-51
2021/09/30 08:01:53;;;;;;;;;;;;;;;23.17;51.31;102137.06;2075082;28;978;-51
2021/09/30 08:02:53;;;;;;;;;;;;;;;23.17;51.72;102137.06;2075030;28;918;-51
2021/09/30 08:03:54;;;;;;;;;;;;;;;23.18;51.50;102130.72;2074812;28;1666;-51
2021/09/30 08:04:54;;;;;;;;;;;;;;;23.18;51.70;102136.13;2074930;28;910;-51
2021/09/30 08:05:55;;;;;;;;;;;;;;;23.15;51.93;102125.38;2067258;28;1937;-51
2021/09/30 08:06:55;;;;;;;;;;;;;;;23.13;51.31;102132.63;2073055;28;1656;-51
2021/09/30 08:07:55;;;;;;;;;;;;;;;23.15;51.69;102132.63;2073486;28;1569;-51
2021/09/30 08:08:55;;;;;;;;;;;;;;;23.15;51.70;102136.19;2073501;28;1423;-51